Time;durP1;ratioP1;P1;durP2;ratioP2;P2;SDS_P1;SDS_P2;PMS_P1;PMS_P2;Temp;Humidity;BMP_temperature;BMP_pressure;BME280_temperature;BME280_humidity;BME280_pressure;Samples;Min_cycle;Max_cycle;Signal;HPM_P1;HPM_P2
2022/12/05 00:00:37;;;;;;;308.37;295.47;;;2.60;99.90;;;;;;5035729;28;20472;-80
2022/12/05 00:03:05;;;;;;;277.70;265.40;;;2.60;99.90;;;;;;5036968;28;20451;-79
2022/12/05 00:05:31;;;;;;;302.23;289.70;;;2.70;99.90;;;;;;5036548;28;20463;-80
2022/12/05 00:07:58;;;;;;;352.07;336.87;;;2.70;99.90;;;;;;5036986;28;20455;-79
2022/12/05 00:10:25;;;;;;;398.50;382.23;;;2.70;99.90;;;;;;5035581;28;20460;-79
2022/12/05 00:12:53;;;;;;;360.23;344.80;;;2.70;99.90;;;;;;5036229;28;20452;-78
2022/12/05 00:15:19;;;;;;;269.30;258.23;;;2.70;99.90;;;;;;5036181;28;20457;-79
2022/12/05 00:17:46;;;;;;;246.60;235.20;;;2.60;99.90;;;;;;5036356;28;20476;-79
2022/12/05 00:20:13;;;;;;;249.17;238.33;;;2.70;99.90;;;;;;5036197;28;20460;-79
2022/12/05 00:22:40;;;;;;;269.60;258.90;;;2.70;99.90;;;;;;5036250;28;20459;-79
2022/12/05 00:25:07;;;;;;;234.00;223.70;;;2.60;99.90;;;;;;5036181;28;20456;-79
2022/12/05 00:27:34;;;;;;;330.77;317.40;;;2.70;99.90;;;;;;5035871;28;20459;-79
2022/12/05 00:30:03;;;;;;;279.60;267.93;;;2.70;99.90;;;;;;5035722;28;20460;-80
2022/12/05 00:32:30;;;;;;;325.30;312.07;;;2.70;99.90;;;;;;5035574;28;20529;-79
2022/12/05 00:34:57;;;;;;;255.27;244.47;;;2.70;99.90;;;;;;5036357;28;20463;-79
2022/12/05 00:37:24;;;;;;;323.57;310.50;;;2.70;99.90;;;;;;5035587;28;20452;-80
2022/12/05 00:39:51;;;;;;;235.83;226.43;;;2.70;99.90;;;;;;5035029;28;20975;-79
2022/12/05 00:42:18;;;;;;;243.57;233.33;;;2.60;99.90;;;;;;5035820;28;20475;-79
2022/12/05 00:44:44;;;;;;;305.63;292.87;;;2.80;99.90;;;;;;5035723;28;20458;-79
2022/12/05 00:47:12;;;;;;;351.17;337.10;;;2.70;99.90;;;;;;5036553;28;20459;-79
2022/12/05 00:49:39;;;;;;;396.50;381.00;;;2.70;99.90;;;;;;5036155;28;20856;-79
2022/12/05 00:52:06;;;;;;;417.97;399.97;;;2.70;99.90;;;;;;5035552;28;20476;-80
2022/12/05 00:54:33;;;;;;;400.17;383.60;;;2.70;99.90;;;;;;5035887;28;20952;-79
2022/12/05 00:56:59;;;;;;;385.17;369.43;;;2.80;99.90;;;;;;5036030;28;20459;-78
2022/12/05 00:59:26;;;;;;;445.87;426.47;;;2.70;99.90;;;;;;5036045;28;20487;-79
2022/12/05 01:01:53;;;;;;;439.20;419.80;;;2.70;99.90;;;;;;5035298;28;20894;-80
2022/12/05 01:04:23;;;;;;;477.50;455.80;;;2.70;99.90;;;;;;5035916;28;20836;-79
2022/12/05 01:06:51;;;;;;;462.67;442.67;;;2.70;99.90;;;;;;5035698;28;20447;-79
2022/12/05 01:09:20;;;;;;;494.13;470.27;;;2.80;99.90;;;;;;5035374;28;20617;-80
2022/12/05 01:11:47;;;;;;;487.93;464.97;;;2.70;99.90;;;;;;5035483;28;20475;-79
2022/12/05 01:14:15;;;;;;;442.03;422.23;;;2.80;99.90;;;;;;5035670;28;20468;-80
2022/12/05 01:16:44;;;;;;;415.43;397.47;;;2.80;99.90;;;;;;5035553;28;20456;-79
2022/12/05 01:19:13;;;;;;;459.70;438.93;;;2.80;99.90;;;;;;5035650;28;20484;-79
2022/12/05 01:21:42;;;;;;;397.73;382.47;;;2.80;99.90;;;;;;5034569;28;20472;-79
2022/12/05 01:24:09;;;;;;;388.93;372.40;;;2.70;99.90;;;;;;5034886;28;20452;-79
2022/12/05 01:26:35;;;;;;;331.63;319.00;;;2.80;99.90;;;;;;5035539;28;20452;-79
2022/12/05 01:29:03;;;;;;;344.53;329.20;;;2.70;99.90;;;;;;5035160;28;20456;-79
2022/12/05 01:31:32;;;;;;;392.43;376.13;;;2.80;99.90;;;;;;5034360;28;20499;-79
2022/12/05 01:34:00;;;;;;;388.27;371.63;;;2.80;99.90;;;;;;5034729;28;20566;-79
2022/12/05 01:36:28;;;;;;;415.67;398.07;;;2.70;99.90;;;;;;5034884;28;20531;-79
2022/12/05 01:38:57;;;;;;;405.40;388.20;;;2.70;99.90;;;;;;5035217;28;20515;-79
2022/12/05 01:41:26;;;;;;;374.03;359.10;;;2.80;99.90;;;;;;5033875;28;21030;-78
2022/12/05 01:43:55;;;;;;;357.67;342.37;;;2.80;99.90;;;;;;5034602;28;20981;-79
2022/12/05 01:46:22;;;;;;;374.07;358.00;;;2.80;99.90;;;;;;5034454;28;20895;-79
2022/12/05 01:48:50;;;;;;;390.30;373.63;;;2.80;99.90;;;;;;5034653;28;20543;-79
2022/12/05 01:51:18;;;;;;;402.57;385.33;;;2.70;99.90;;;;;;5033844;28;20503;-79
2022/12/05 01:53:45;;;;;;;411.30;394.17;;;2.70;99.90;;;;;;5035082;28;20458;-79
2022/12/05 01:56:14;;;;;;;378.20;362.53;;;2.70;99.90;;;;;;5035205;28;20460;-79
2022/12/05 01:58:43;;;;;;;307.07;295.10;;;2.80;99.90;;;;;;5034574;28;20476;-79
2022/12/05 02:01:12;;;;;;;358.93;344.07;;;2.80;99.90;;;;;;5034175;28;20517;-78
2022/12/05 02:03:39;;;;;;;382.50;366.20;;;2.80;99.90;;;;;;5034082;28;20452;-79
2022/12/05 02:06:06;;;;;;;352.07;338.00;;;2.80;99.90;;;;;;5034149;28;20452;-79
2022/12/05 02:08:33;;;;;;;416.87;398.33;;;2.80;99.90;;;;;;5034135;28;20463;-79
2022/12/05 02:11:00;;;;;;;394.77;378.47;;;2.80;99.90;;;;;;5033296;28;20476;-79
2022/12/05 02:13:37;;;;;;;340.93;327.33;;;2.70;99.90;;;;;;5034081;28;20944;-79
2022/12/05 02:16:11;;;;;;;405.50;388.70;;;2.80;99.90;;;;;;5033458;28;20953;-79
2022/12/05 02:18:51;;;;;;;422.17;403.93;;;2.80;99.90;;;;;;5034203;28;20471;-79
2022/12/05 02:22:00;;;;;;;422.27;403.97;;;2.80;99.90;;;;;;5033668;28;20476;-79
2022/12/05 02:24:54;;;;;;;403.20;386.43;;;2.80;99.90;;;;;;5017770;28;20455;-79
2022/12/05 02:27:39;;;;;;;352.50;337.93;;;2.80;99.90;;;;;;5013877;28;20457;-78
2022/12/05 02:30:09;;;;;;;351.60;336.60;;;2.70;99.90;;;;;;5015644;28;20450;-78
2022/12/05 02:32:51;;;;;;;445.97;426.80;;;2.70;99.90;;;;;;5032449;28;20475;-78
2022/12/05 02:35:29;;;;;;;470.33;451.20;;;2.80;99.90;;;;;;5032278;28;20448;-78
2022/12/05 02:38:05;;;;;;;428.83;411.63;;;2.70;99.90;;;;;;5032402;28;20450;-78
2022/12/05 02:40:39;;;;;;;384.17;368.17;;;2.70;99.90;;;;;;5031364;28;20490;-78
2022/12/05 02:43:12;;;;;;;405.30;387.20;;;2.60;99.90;;;;;;5031886;28;20462;-79
2022/12/05 02:45:42;;;;;;;394.70;379.70;;;2.60;99.90;;;;;;5032015;28;20949;-78
2022/12/05 02:48:12;;;;;;;393.47;377.47;;;2.60;99.90;;;;;;5032194;28;20436;-79
2022/12/05 02:50:41;;;;;;;484.03;462.83;;;2.60;99.90;;;;;;5032100;28;20468;-79
2022/12/05 02:53:11;;;;;;;446.10;427.50;;;2.50;99.90;;;;;;5032719;28;20452;-79
2022/12/05 02:55:39;;;;;;;522.37;499.13;;;2.60;99.90;;;;;;5033093;28;20440;-79
2022/12/05 02:58:13;;;;;;;536.53;513.03;;;2.50;99.90;;;;;;5033255;28;20480;-79
2022/12/05 03:00:44;;;;;;;524.83;500.73;;;2.50;99.90;;;;;;5032549;28;20826;-80
2022/12/05 03:03:15;;;;;;;583.57;555.43;;;2.50;99.90;;;;;;5035034;28;20464;-80
2022/12/05 03:05:47;;;;;;;566.30;540.60;;;2.50;99.90;;;;;;5036120;28;20448;-79
2022/12/05 03:08:19;;;;;;;540.63;515.73;;;2.50;99.90;;;;;;5036196;28;20448;-79
2022/12/05 03:10:47;;;;;;;472.60;451.90;;;2.50;99.90;;;;;;5035922;28;20476;-79
2022/12/05 03:13:19;;;;;;;511.67;488.17;;;2.50;99.90;;;;;;5036282;28;20459;-79
2022/12/05 03:15:50;;;;;;;551.47;526.40;;;2.50;99.90;;;;;;5036078;28;20460;-79
2022/12/05 03:18:24;;;;;;;557.23;532.87;;;2.50;99.90;;;;;;5035763;28;20559;-78
2022/12/05 03:20:54;;;;;;;562.57;536.20;;;2.40;99.90;;;;;;5035452;28;20472;-79
2022/12/05 03:23:28;;;;;;;594.10;568.00;;;2.50;99.90;;;;;;5035558;28;20473;-78
2022/12/05 03:26:02;;;;;;;613.70;585.53;;;2.40;99.90;;;;;;5035675;28;20444;-79
2022/12/05 03:28:36;;;;;;;675.23;640.67;;;2.30;99.90;;;;;;5035195;28;20936;-78
2022/12/05 03:31:10;;;;;;;715.33;675.27;;;2.30;99.90;;;;;;5035158;28;20482;-79
2022/12/05 03:33:42;;;;;;;737.23;693.73;;;2.30;99.90;;;;;;4999989;28;1038062;-79
2022/12/05 03:36:13;;;;;;;737.17;691.97;;;2.30;99.90;;;;;;5036523;28;20208;-79
2022/12/05 03:38:45;;;;;;;753.03;705.73;;;2.30;99.90;;;;;;5036266;28;20542;-79
2022/12/05 03:41:18;;;;;;;757.70;708.40;;;2.30;99.90;;;;;;5035552;28;20476;-78
2022/12/05 03:43:52;;;;;;;749.97;700.20;;;2.30;99.90;;;;;;5035718;28;20451;-79
2022/12/05 03:46:27;;;;;;;760.00;708.33;;;2.20;99.90;;;;;;5037308;28;20464;-80
2022/12/05 03:48:57;;;;;;;757.40;705.40;;;2.20;99.90;;;;;;5016286;28;20455;-79
2022/12/05 03:51:31;;;;;;;759.60;706.00;;;2.20;99.90;;;;;;5026412;28;20851;-79
2022/12/05 03:54:02;;;;;;;749.87;695.47;;;2.20;99.90;;;;;;5038236;28;20452;-80
2022/12/05 03:56:34;;;;;;;750.77;695.87;;;2.10;99.90;;;;;;5041258;28;20822;-80
2022/12/05 03:59:07;;;;;;;757.80;701.40;;;2.10;99.90;;;;;;5045462;28;20531;-81
2022/12/05 04:01:38;;;;;;;761.93;705.07;;;2.00;99.90;;;;;;5047200;28;20554;-83
2022/12/05 04:04:11;;;;;;;763.83;704.87;;;2.00;99.90;;;;;;5043492;28;20455;-79
2022/12/05 04:06:41;;;;;;;759.50;702.30;;;2.00;99.90;;;;;;5037636;28;20861;-79
2022/12/05 04:09:11;;;;;;;758.33;700.77;;;2.10;99.90;;;;;;5032179;28;20520;-79
2022/12/05 04:11:45;;;;;;;768.57;710.47;;;2.00;99.90;;;;;;5035892;28;20475;-78
2022/12/05 04:14:16;;;;;;;763.73;705.40;;;1.90;99.90;;;;;;5036172;28;20447;-77
2022/12/05 04:17:04;;;;;;;772.00;712.23;;;2.00;99.90;;;;;;5025461;28;20452;-80
2022/12/05 04:22:24;;;;;;;766.87;707.60;;;1.90;99.90;;;;;;5035870;28;20463;-79
2022/12/05 04:27:46;;;;;;;767.00;707.90;;;2.00;99.90;;;;;;5035605;28;20428;-78
2022/12/05 04:30:15;;;;;;;768.57;709.50;;;1.90;99.90;;;;;;5035242;28;20432;-78
2022/12/05 04:32:49;;;;;;;755.67;696.83;;;1.90;99.90;;;;;;5035105;28;20464;-77
2022/12/05 04:35:20;;;;;;;735.80;676.27;;;1.90;99.90;;;;;;5035076;28;20982;-78
2022/12/05 04:37:52;;;;;;;750.47;690.33;;;1.90;99.90;;;;;;5034853;28;20452;-78
2022/12/05 04:40:23;;;;;;;757.87;697.40;;;1.90;99.90;;;;;;5034828;28;20464;-78
2022/12/05 04:42:52;;;;;;;752.17;689.60;;;1.90;99.90;;;;;;5034432;28;20460;-80
2022/12/05 04:45:21;;;;;;;738.87;677.87;;;1.80;99.90;;;;;;5036278;28;20475;-78
2022/12/05 04:47:53;;;;;;;754.77;693.30;;;1.80;99.90;;;;;;5034736;28;20451;-79
2022/12/05 04:50:21;;;;;;;757.47;695.57;;;1.80;99.90;;;;;;5034651;28;20443;-78
2022/12/05 04:52:52;;;;;;;751.43;688.83;;;1.90;99.90;;;;;;5036203;28;20456;-80
2022/12/05 04:55:24;;;;;;;753.47;691.20;;;1.80;99.90;;;;;;5036327;28;20460;-79
2022/12/05 04:57:59;;;;;;;749.07;687.87;;;1.80;99.90;;;;;;5036051;28;20959;-79
2022/12/05 05:00:27;;;;;;;752.80;691.60;;;1.80;99.90;;;;;;5034509;28;20831;-78
2022/12/05 05:03:03;;;;;;;734.10;673.07;;;1.70;99.90;;;;;;5034383;28;20456;-79
2022/12/05 05:05:32;;;;;;;726.27;666.70;;;1.70;99.90;;;;;;5035616;28;20443;-79
2022/12/05 05:07:59;;;;;;;736.90;676.80;;;1.60;99.90;;;;;;5037318;28;20483;-80
2022/12/05 05:10:32;;;;;;;731.57;671.87;;;1.50;99.90;;;;;;5036537;28;20452;-79
2022/12/05 05:12:59;;;;;;;735.50;673.00;;;1.50;99.90;;;;;;5034882;28;20447;-77
2022/12/05 05:15:26;;;;;;;732.87;672.07;;;1.50;99.90;;;;;;5034960;28;20460;-79
2022/12/05 05:17:52;;;;;;;737.57;676.17;;;1.50;99.90;;;;;;5044142;28;20964;-77
2022/12/05 05:20:23;;;;;;;742.00;679.80;;;1.40;99.90;;;;;;5054230;28;20486;-76
2022/12/05 05:22:50;;;;;;;731.37;669.37;;;1.40;99.90;;;;;;5054777;28;20462;-80
2022/12/05 05:25:16;;;;;;;729.97;667.37;;;1.30;99.90;;;;;;5037919;28;20448;-79
2022/12/05 05:27:43;;;;;;;727.07;665.90;;;1.30;99.90;;;;;;5034428;28;20459;-79
2022/12/05 05:30:10;;;;;;;717.87;656.10;;;1.30;99.90;;;;;;5034594;28;20456;-80
2022/12/05 05:32:37;;;;;;;730.37;667.80;;;1.30;99.90;;;;;;5035052;28;20486;-79
2022/12/05 05:35:04;;;;;;;720.23;659.07;;;1.30;99.90;;;;;;5034786;28;20460;-79
2022/12/05 05:37:32;;;;;;;720.63;660.70;;;1.20;99.90;;;;;;5033752;28;20448;-79
2022/12/05 05:39:59;;;;;;;732.33;672.53;;;1.20;99.90;;;;;;5034153;28;20475;-79
2022/12/05 05:42:26;;;;;;;722.60;661.83;;;1.10;99.90;;;;;;5033479;28;20487;-79
2022/12/05 05:44:52;;;;;;;721.23;661.07;;;1.10;99.90;;;;;;5034698;28;20456;-79
2022/12/05 05:47:19;;;;;;;730.80;669.37;;;1.00;99.90;;;;;;5034028;28;20455;-81
2022/12/05 05:49:46;;;;;;;725.07;663.70;;;1.10;99.90;;;;;;5034379;28;20455;-79
2022/12/05 05:52:12;;;;;;;721.63;659.57;;;1.10;99.90;;;;;;5033368;28;20992;-78
2022/12/05 05:54:41;;;;;;;709.50;647.30;;;1.10;99.90;;;;;;5034298;28;20448;-78
2022/12/05 05:57:07;;;;;;;705.70;644.63;;;1.10;99.90;;;;;;5034517;28;21083;-79
2022/12/05 05:59:34;;;;;;;705.97;644.90;;;1.10;99.90;;;;;;5033665;28;20575;-79
2022/12/05 06:02:01;;;;;;;704.47;642.37;;;1.10;99.90;;;;;;5032731;28;20992;-80
2022/12/05 06:04:28;;;;;;;706.70;642.40;;;1.10;99.90;;;;;;5033486;28;20456;-79
2022/12/05 06:06:54;;;;;;;708.33;643.87;;;1.10;99.90;;;;;;5033327;28;20451;-79
2022/12/05 06:09:21;;;;;;;702.87;637.90;;;1.10;99.90;;;;;;5033284;28;20480;-79
2022/12/05 06:11:49;;;;;;;711.50;646.83;;;1.00;99.90;;;;;;5033594;28;20475;-79
2022/12/05 06:14:16;;;;;;;718.00;655.70;;;1.00;99.90;;;;;;5033310;28;20460;-79
2022/12/05 06:16:43;;;;;;;722.97;659.00;;;1.00;99.90;;;;;;5034010;28;20467;-81
2022/12/05 06:19:10;;;;;;;724.37;659.77;;;1.10;99.90;;;;;;5033041;28;20445;-79
2022/12/05 06:24:27;;;;;;;695.47;630.37;;;1.10;99.90;;;;;;5036613;28;20996;-78
2022/12/05 06:27:01;;;;;;;703.77;638.90;;;1.00;99.90;;;;;;5033915;28;20835;-79
2022/12/05 06:29:28;;;;;;;703.90;638.40;;;1.00;99.90;;;;;;5033147;28;20493;-77
2022/12/05 06:31:55;;;;;;;705.70;640.77;;;0.90;99.90;;;;;;5032463;28;20563;-79
2022/12/05 06:34:24;;;;;;;694.10;628.80;;;1.10;99.90;;;;;;5031294;28;20896;-79
2022/12/05 06:37:03;;;;;;;693.97;628.50;;;1.00;99.90;;;;;;5032565;28;20606;-79
2022/12/05 06:39:30;;;;;;;690.13;625.47;;;1.10;99.90;;;;;;5033549;28;20543;-79
2022/12/05 06:41:58;;;;;;;698.87;634.13;;;1.00;99.90;;;;;;5032956;28;20473;-80
2022/12/05 06:44:29;;;;;;;695.43;630.70;;;1.00;99.90;;;;;;5033903;28;20455;-81
2022/12/05 06:46:56;;;;;;;692.47;627.27;;;1.00;99.90;;;;;;5027101;28;20826;-79
2022/12/05 06:49:31;;;;;;;696.90;632.00;;;0.90;99.90;;;;;;5032879;28;20479;-78
2022/12/05 06:51:57;;;;;;;698.83;631.90;;;1.10;99.90;;;;;;5031743;28;20471;-78
2022/12/05 06:54:24;;;;;;;712.97;646.07;;;1.00;99.90;;;;;;5033029;28;20460;-79
2022/12/05 06:56:51;;;;;;;718.50;651.00;;;1.00;99.90;;;;;;5032512;28;20949;-80
2022/12/05 06:59:19;;;;;;;718.10;651.80;;;1.00;99.90;;;;;;5033589;28;20444;-80
2022/12/05 07:01:45;;;;;;;712.60;646.60;;;1.00;99.90;;;;;;5033927;28;20853;-79
2022/12/05 07:04:14;;;;;;;715.97;648.77;;;1.00;99.90;;;;;;5034574;28;20510;-80
2022/12/05 07:06:42;;;;;;;691.70;624.70;;;1.00;99.90;;;;;;5032436;28;20598;-80
2022/12/05 07:09:09;;;;;;;704.77;637.87;;;1.10;99.90;;;;;;5030860;28;20451;-80
2022/12/05 07:11:37;;;;;;;698.87;633.00;;;1.00;99.90;;;;;;5032706;28;20470;-80
2022/12/05 07:14:05;;;;;;;703.73;637.20;;;1.00;99.90;;;;;;5032945;28;20448;-80
2022/12/05 07:16:33;;;;;;;704.53;637.27;;;1.00;99.90;;;;;;5033638;28;20957;-80
2022/12/05 07:19:00;;;;;;;708.03;641.97;;;1.00;99.90;;;;;;5033517;28;20506;-79
2022/12/05 07:21:26;;;;;;;709.37;642.60;;;1.00;99.90;;;;;;5033988;28;20977;-80
2022/12/05 07:23:54;;;;;;;697.70;632.00;;;1.00;99.90;;;;;;5033195;28;20450;-80
2022/12/05 07:26:23;;;;;;;696.87;631.10;;;1.00;99.90;;;;;;5022787;28;20448;-80
2022/12/05 07:28:51;;;;;;;707.33;642.43;;;1.00;99.90;;;;;;5033426;28;20456;-80
2022/12/05 07:31:20;;;;;;;708.20;642.70;;;1.00;99.90;;;;;;5033054;28;20489;-80
2022/12/05 07:33:49;;;;;;;703.67;638.00;;;1.00;99.90;;;;;;5032983;28;20464;-79
2022/12/05 07:36:17;;;;;;;706.47;638.97;;;0.90;99.90;;;;;;5033452;28;20479;-80
2022/12/05 07:38:44;;;;;;;719.43;653.47;;;1.00;99.90;;;;;;5033846;28;20459;-80
2022/12/05 07:41:15;;;;;;;711.30;644.50;;;0.90;99.90;;;;;;5032801;28;20464;-80
2022/12/05 07:43:42;;;;;;;707.83;641.83;;;0.90;99.90;;;;;;5033520;28;20811;-81
2022/12/05 07:46:11;;;;;;;715.33;649.40;;;0.90;99.90;;;;;;5033383;28;20458;-80
2022/12/05 07:48:37;;;;;;;703.40;637.00;;;1.00;99.90;;;;;;5034098;28;20949;-81
2022/12/05 07:51:07;;;;;;;710.27;643.73;;;0.90;99.90;;;;;;5036132;28;20480;-80
2022/12/05 07:53:34;;;;;;;702.60;636.07;;;0.90;99.90;;;;;;5036438;28;20886;-80
2022/12/05 07:56:02;;;;;;;682.00;616.67;;;1.00;99.90;;;;;;5036602;28;20463;-80
2022/12/05 07:58:30;;;;;;;696.33;630.87;;;1.00;99.90;;;;;;5036075;28;20452;-80
2022/12/05 08:00:57;;;;;;;700.97;635.20;;;1.00;99.90;;;;;;5036027;28;20844;-80
2022/12/05 08:03:24;;;;;;;688.63;623.90;;;0.90;99.90;;;;;;5034003;28;20546;-80
2022/12/05 08:05:51;;;;;;;693.07;627.13;;;0.90;99.90;;;;;;5035274;28;20456;-80
2022/12/05 08:08:19;;;;;;;700.57;633.47;;;0.90;99.90;;;;;;5035031;28;20463;-80
2022/12/05 08:10:45;;;;;;;707.00;640.87;;;1.00;99.90;;;;;;5034140;28;20507;-80
2022/12/05 08:13:12;;;;;;;706.63;638.30;;;1.00;99.90;;;;;;5034861;28;20471;-80
2022/12/05 08:15:41;;;;;;;707.47;640.20;;;1.00;99.90;;;;;;5035191;28;20455;-81
2022/12/05 08:18:08;;;;;;;703.93;639.13;;;1.10;99.90;;;;;;5034932;28;20544;-80
2022/12/05 08:20:35;;;;;;;708.23;642.67;;;1.00;99.90;;;;;;5034004;28;20468;-83
2022/12/05 08:23:02;;;;;;;705.70;639.57;;;1.00;99.90;;;;;;5034569;28;20852;-79
2022/12/05 08:25:30;;;;;;;708.10;640.90;;;1.10;99.90;;;;;;5034319;28;20467;-79
2022/12/05 08:27:56;;;;;;;708.40;642.90;;;1.00;99.90;;;;;;5034262;28;20452;-81
2022/12/05 08:30:23;;;;;;;697.70;631.30;;;1.00;99.90;;;;;;5033981;28;20484;-80
2022/12/05 08:32:50;;;;;;;698.63;632.70;;;1.10;99.90;;;;;;5034434;28;20466;-80
2022/12/05 08:35:17;;;;;;;687.40;621.67;;;1.00;99.90;;;;;;5034245;28;20452;-81
2022/12/05 08:37:43;;;;;;;689.80;622.70;;;1.10;99.90;;;;;;5034386;28;20456;-81
2022/12/05 08:40:11;;;;;;;683.40;618.30;;;1.20;99.90;;;;;;5033378;28;21057;-79
2022/12/05 08:42:39;;;;;;;696.85;629.25;;;1.10;99.90;;;;;;5033608;28;20460;-79
2022/12/05 08:45:07;;;;;;;679.10;613.15;;;1.20;99.90;;;;;;5033813;28;20457;-80
2022/12/05 08:47:33;;;;;;;682.53;617.87;;;1.10;99.90;;;;;;5034360;28;20202;-80
2022/12/05 08:50:00;;;;;;;675.90;610.80;;;1.20;99.90;;;;;;5034615;28;20476;-80
2022/12/05 08:52:27;;;;;;;675.17;610.10;;;1.30;99.90;;;;;;5034332;28;20482;-82
2022/12/05 08:54:53;;;;;;;679.60;613.80;;;1.30;99.90;;;;;;5034503;28;20464;-81
2022/12/05 08:57:20;;;;;;;683.13;618.77;;;1.30;99.90;;;;;;5034863;28;20456;-80
2022/12/05 08:59:48;;;;;;;678.40;615.47;;;1.30;99.90;;;;;;5033987;28;20448;-81
2022/12/05 09:02:15;;;;;;;684.87;622.17;;;1.30;99.90;;;;;;5034526;28;20468;-81
2022/12/05 09:04:42;;;;;;;673.67;610.30;;;1.30;99.90;;;;;;5035110;28;20456;-82
2022/12/05 09:07:08;;;;;;;683.53;619.47;;;1.40;99.90;;;;;;5036295;28;20456;-81
2022/12/05 09:09:35;;;;;;;692.03;628.53;;;1.30;99.90;;;;;;5034817;28;20456;-81
2022/12/05 09:12:02;;;;;;;688.10;623.67;;;1.40;99.90;;;;;;5034360;28;20476;-82
2022/12/05 09:14:31;;;;;;;679.50;616.60;;;1.40;99.90;;;;;;5034262;28;20853;-81
2022/12/05 09:17:00;;;;;;;677.57;614.87;;;1.40;99.90;;;;;;5034220;28;20452;-82
2022/12/05 09:19:28;;;;;;;681.40;618.97;;;1.40;99.90;;;;;;5034546;28;20456;-81
2022/12/05 09:21:55;;;;;;;688.20;626.83;;;1.40;99.90;;;;;;5034142;28;20472;-81
2022/12/05 09:24:22;;;;;;;682.73;620.80;;;1.50;99.90;;;;;;5035911;28;20456;-81
2022/12/05 09:26:49;;;;;;;684.90;623.23;;;1.40;99.90;;;;;;5035596;28;20464;-81
2022/12/05 09:29:16;;;;;;;686.97;626.50;;;1.50;99.90;;;;;;5037172;28;20460;-80
2022/12/05 09:31:43;;;;;;;685.70;624.47;;;1.50;99.90;;;;;;5035330;28;20487;-81
2022/12/05 09:34:12;;;;;;;675.40;615.03;;;1.60;99.90;;;;;;5034502;28;21102;-81
2022/12/05 09:36:39;;;;;;;677.27;616.57;;;1.60;99.90;;;;;;5034554;28;20456;-81
2022/12/05 09:39:07;;;;;;;681.17;620.00;;;1.50;99.90;;;;;;5035900;28;20455;-81
2022/12/05 09:42:07;;;;;;;683.67;623.40;;;1.70;99.90;;;;;;5034680;28;20514;-82
2022/12/05 09:44:49;;;;;;;680.40;622.37;;;1.60;99.90;;;;;;5034889;28;20546;-80
2022/12/05 09:47:29;;;;;;;687.80;631.00;;;1.60;99.90;;;;;;5034766;28;20448;-81
2022/12/05 09:50:02;;;;;;;691.90;634.37;;;1.70;99.90;;;;;;5034534;28;20460;-81
2022/12/05 09:52:33;;;;;;;690.20;634.60;;;1.70;99.90;;;;;;5034534;28;20506;-81
2022/12/05 09:55:05;;;;;;;683.47;628.93;;;1.70;99.90;;;;;;5034810;28;20459;-81
2022/12/05 09:57:35;;;;;;;685.77;631.80;;;1.70;99.90;;;;;;5034745;28;20456;-80
2022/12/05 10:00:05;;;;;;;687.30;634.50;;;1.70;99.90;;;;;;5034709;28;20643;-79
2022/12/05 10:02:42;;;;;;;688.60;636.33;;;1.70;99.90;;;;;;5035689;28;20983;-81
2022/12/05 10:05:14;;;;;;;682.97;630.20;;;1.70;99.90;;;;;;5034327;28;20456;-81
2022/12/05 10:07:51;;;;;;;687.93;635.83;;;1.60;99.90;;;;;;5034384;28;20543;-81
2022/12/05 10:10:28;;;;;;;683.40;629.83;;;1.70;99.90;;;;;;5033390;28;20468;-79
2022/12/05 10:13:13;;;;;;;673.50;621.73;;;1.60;99.90;;;;;;5034423;28;20463;-82
2022/12/05 10:15:44;;;;;;;667.20;615.97;;;1.60;99.90;;;;;;5034111;28;20456;-81
2022/12/05 10:18:28;;;;;;;675.80;624.80;;;1.60;99.90;;;;;;5036093;28;20482;-81
2022/12/05 10:21:00;;;;;;;677.90;626.57;;;1.60;99.90;;;;;;5034854;28;20472;-81
2022/12/05 10:23:31;;;;;;;672.77;620.97;;;1.50;99.90;;;;;;5032734;28;20452;-79
2022/12/05 10:26:01;;;;;;;671.73;621.47;;;1.40;99.90;;;;;;5032662;28;20452;-79
2022/12/05 10:28:33;;;;;;;677.00;625.70;;;1.50;99.90;;;;;;5032514;28;20459;-79
2022/12/05 10:31:06;;;;;;;680.17;628.30;;;1.40;99.90;;;;;;5031918;28;20484;-79
2022/12/05 10:33:39;;;;;;;671.40;619.37;;;1.50;99.90;;;;;;5032286;28;20459;-79
2022/12/05 10:36:14;;;;;;;676.00;623.80;;;1.50;99.90;;;;;;5032747;28;20444;-78
2022/12/05 10:38:43;;;;;;;665.13;614.13;;;1.40;99.90;;;;;;5032860;28;20456;-78
2022/12/05 10:41:12;;;;;;;671.93;620.93;;;1.40;99.90;;;;;;5031987;28;20475;-79
2022/12/05 10:43:43;;;;;;;672.90;619.80;;;1.40;99.90;;;;;;5032401;28;20452;-79
2022/12/05 10:46:10;;;;;;;670.73;616.60;;;1.40;99.90;;;;;;5032346;28;20445;-79
2022/12/05 10:48:39;;;;;;;671.83;617.07;;;1.40;99.90;;;;;;5032126;28;20452;-79
2022/12/05 10:51:07;;;;;;;671.03;615.87;;;1.50;99.90;;;;;;5031985;28;20483;-79
2022/12/05 10:53:44;;;;;;;659.60;604.10;;;1.50;99.90;;;;;;5032789;28;20452;-78
2022/12/05 10:56:36;;;;;;;659.30;603.00;;;1.50;99.90;;;;;;5032467;28;20543;-78
2022/12/05 10:59:04;;;;;;;661.90;604.90;;;1.60;99.90;;;;;;5032395;28;20472;-78
2022/12/05 11:01:35;;;;;;;666.43;609.73;;;1.50;99.90;;;;;;5032098;28;20476;-78
2022/12/05 11:04:08;;;;;;;662.60;606.93;;;1.40;99.90;;;;;;5032386;28;20459;-79
2022/12/05 11:06:36;;;;;;;670.30;613.50;;;1.50;99.90;;;;;;5019277;28;20457;-79
2022/12/05 11:09:18;;;;;;;669.57;614.40;;;1.50;99.90;;;;;;5011697;28;20941;-79
2022/12/05 11:12:00;;;;;;;675.53;619.63;;;1.50;99.90;;;;;;5011239;28;20866;-79
2022/12/05 11:14:28;;;;;;;672.10;616.90;;;1.50;99.90;;;;;;5011702;28;20463;-78
2022/12/05 11:16:56;;;;;;;675.80;620.37;;;1.50;99.90;;;;;;5011713;28;20464;-78
2022/12/05 11:19:27;;;;;;;667.07;610.63;;;1.50;99.90;;;;;;5011486;28;20457;-79
2022/12/05 11:21:55;;;;;;;665.87;610.33;;;1.50;99.90;;;;;;5011552;28;20527;-79
2022/12/05 11:24:27;;;;;;;668.23;612.77;;;1.50;99.90;;;;;;5014225;28;20483;-79
2022/12/05 11:26:54;;;;;;;660.70;604.90;;;1.50;99.90;;;;;;5015620;28;20480;-79
2022/12/05 11:29:39;;;;;;;666.70;611.90;;;1.50;99.90;;;;;;5015546;28;20456;-80
2022/12/05 11:32:18;;;;;;;671.23;615.63;;;1.50;99.90;;;;;;5016127;28;20481;-79
2022/12/05 11:34:50;;;;;;;671.27;616.87;;;1.50;99.90;;;;;;5015569;28;20488;-79
2022/12/05 11:37:23;;;;;;;671.03;616.13;;;1.40;99.90;;;;;;5015507;28;20556;-78
2022/12/05 11:39:51;;;;;;;675.30;618.97;;;1.40;99.90;;;;;;5015522;28;20976;-78
2022/12/05 11:42:31;;;;;;;676.77;621.57;;;1.50;99.90;;;;;;5014312;28;21036;-79
2022/12/05 11:45:19;;;;;;;667.60;612.20;;;1.40;99.90;;;;;;5016034;28;20456;-79
2022/12/05 11:48:03;;;;;;;669.47;613.50;;;1.60;99.90;;;;;;5015689;28;20459;-78
2022/12/05 11:50:41;;;;;;;679.80;624.03;;;1.60;99.90;;;;;;5015133;28;20465;-78
2022/12/05 11:53:29;;;;;;;685.83;630.57;;;1.60;99.90;;;;;;5015766;28;20819;-78
2022/12/05 11:56:05;;;;;;;682.20;625.80;;;1.70;99.90;;;;;;5015389;28;20457;-78
2022/12/05 11:58:52;;;;;;;688.57;632.00;;;1.70;99.90;;;;;;5015477;28;20946;-78
2022/12/05 12:01:26;;;;;;;677.13;620.53;;;1.70;99.90;;;;;;5015058;28;20469;-79
2022/12/05 12:04:10;;;;;;;681.47;625.27;;;1.80;99.90;;;;;;5015410;28;20455;-80
2022/12/05 12:06:49;;;;;;;679.07;623.60;;;1.80;99.90;;;;;;5015177;28;20448;-78
2022/12/05 12:09:32;;;;;;;680.07;624.97;;;1.80;99.90;;;;;;5015163;28;20460;-79
2022/12/05 12:12:06;;;;;;;677.87;622.40;;;1.90;99.90;;;;;;5014686;28;20851;-78
2022/12/05 12:14:43;;;;;;;669.57;614.40;;;1.90;99.90;;;;;;5015309;28;20456;-78
2022/12/05 12:17:20;;;;;;;677.53;621.80;;;2.00;99.90;;;;;;5015229;28;20453;-78
2022/12/05 12:20:23;;;;;;;673.27;618.10;;;2.10;99.90;;;;;;5015196;28;20480;-78
2022/12/05 12:23:04;;;;;;;669.33;614.67;;;2.20;99.90;;;;;;5015204;28;20453;-78
2022/12/05 12:25:42;;;;;;;667.93;613.87;;;2.30;99.90;;;;;;5014898;28;20465;-78
2022/12/05 12:28:30;;;;;;;672.13;618.47;;;2.30;99.90;;;;;;5015076;28;20523;-78
2022/12/05 12:31:10;;;;;;;670.50;618.27;;;2.30;99.90;;;;;;5014621;28;20875;-77
2022/12/05 12:33:43;;;;;;;677.87;625.00;;;2.40;99.90;;;;;;5014931;28;20461;-78
2022/12/05 12:36:17;;;;;;;672.53;621.93;;;2.40;99.90;;;;;;5014714;28;20833;-78
2022/12/05 12:39:07;;;;;;;671.63;622.30;;;2.50;99.90;;;;;;5015141;28;20475;-78
2022/12/05 12:41:54;;;;;;;674.43;626.03;;;2.50;99.90;;;;;;5014645;28;20849;-78
2022/12/05 12:44:56;;;;;;;647.97;605.63;;;2.40;99.90;;;;;;5014672;28;21033;-77